createdAt,value
2023-01-03T00:01:32.619Z,67.31
2023-01-03T00:04:02.186Z,67.93
2023-01-03T00:06:33.353Z,68.14
2023-01-03T00:09:05.601Z,68.78
2023-01-03T00:11:52.811Z,69.74
2023-01-03T00:14:24.516Z,68.89
2023-01-03T00:16:54.830Z,68.83
2023-01-03T00:19:24.522Z,69.99
2023-01-03T00:21:53.392Z,69.60
2023-01-03T00:24:23.705Z,69.86
2023-01-03T00:26:52.687Z,70.16
2023-01-03T00:29:20.993Z,70.36
2023-01-03T00:31:49.250Z,70.57
2023-01-03T00:34:17.590Z,70.18
2023-01-03T00:36:45.798Z,69.27
2023-01-03T00:39:14.342Z,68.91
2023-01-03T00:41:44.011Z,68.43
2023-01-03T00:44:13.812Z,68.35
2023-01-03T00:46:42.829Z,68.58
2023-01-03T00:49:11.612Z,68.38
2023-01-03T00:51:41.523Z,68.45
2023-01-03T00:54:11.051Z,68.39
2023-01-03T00:56:41.530Z,68.79
2023-01-03T00:59:12.042Z,68.10
2023-01-03T01:01:47.196Z,68.36
2023-01-03T01:04:18.435Z,67.60
2023-01-03T01:06:48.467Z,68.44
2023-01-03T01:09:19.748Z,68.04
2023-01-03T01:11:48.493Z,68.22
2023-01-03T01:14:21.843Z,68.14
2023-01-03T01:16:55.238Z,68.04
2023-01-03T01:19:26.940Z,67.33
2023-01-03T01:21:55.732Z,67.09
2023-01-03T01:24:24.047Z,66.91
2023-01-03T01:26:53.073Z,67.24
2023-01-03T01:29:22.985Z,66.87
2023-01-03T01:31:51.985Z,66.76
2023-01-03T01:34:20.305Z,67.12
2023-01-03T01:36:49.352Z,66.66
2023-01-03T01:39:20.489Z,66.28
2023-01-03T01:42:08.457Z,66.52
2023-01-03T01:44:49.688Z,66.38
2023-01-03T01:47:24.038Z,66.07
2023-01-03T01:49:56.308Z,66.50
2023-01-03T01:52:26.006Z,66.21
2023-01-03T01:54:56.027Z,66.06
2023-01-03T01:57:25.642Z,65.62
2023-01-03T01:59:55.256Z,64.86
2023-01-03T02:02:25.942Z,65.65
2023-01-03T02:04:56.736Z,65.18
2023-01-03T02:07:25.368Z,65.49
2023-01-03T02:09:57.066Z,65.23
2023-01-03T02:12:54.600Z,66.21
2023-01-03T02:15:37.914Z,66.53
2023-01-03T02:18:18.805Z,66.52
2023-01-03T02:21:21.615Z,66.14
2023-01-03T02:24:16.076Z,66.08
2023-01-03T02:26:56.571Z,66.49
2023-01-03T02:30:01.713Z,65.79
2023-01-03T02:32:40.965Z,66.78
2023-01-03T02:35:18.615Z,66.79
2023-01-03T02:37:56.262Z,65.38
2023-01-03T02:40:29.735Z,65.62
2023-01-03T02:43:06.110Z,66.53
2023-01-03T02:45:53.320Z,65.66
2023-01-03T02:48:33.376Z,65.91
2023-01-03T02:51:04.438Z,66.88
2023-01-03T02:53:39.361Z,66.30
2023-01-03T02:56:11.828Z,66.96
2023-01-03T02:58:44.886Z,66.02
2023-01-03T03:01:18.239Z,66.26
2023-01-03T03:04:02.126Z,66.75
2023-01-03T03:06:35.868Z,67.04
2023-01-03T03:09:05.150Z,66.65
2023-01-03T03:11:54.716Z,66.75
2023-01-03T03:14:29.358Z,67.19
2023-01-03T03:17:04.077Z,67.33
2023-01-03T03:19:53.716Z,66.56
2023-01-03T03:22:48.368Z,67.48
2023-01-03T03:25:21.166Z,66.88
2023-01-03T03:28:10.252Z,66.58
2023-01-03T03:30:42.068Z,67.05
2023-01-03T03:33:14.037Z,66.04
2023-01-03T03:35:49.174Z,66.43
2023-01-03T03:38:25.147Z,66.28
2023-01-03T03:41:18.757Z,66.41
2023-01-03T03:44:14.254Z,66.32
2023-01-03T03:46:54.492Z,66.52
2023-01-03T03:49:38.881Z,66.68
2023-01-03T03:52:13.020Z,66.14
2023-01-03T03:54:45.093Z,66.54
2023-01-03T03:57:19.782Z,66.11
2023-01-03T03:59:54.291Z,66.24
2023-01-03T04:02:26.277Z,66.28
2023-01-03T04:04:59.519Z,65.96
2023-01-03T04:07:29.659Z,65.08
2023-01-03T04:09:58.754Z,65.31
2023-01-03T04:12:27.376Z,65.50
2023-01-03T04:14:55.815Z,64.94
2023-01-03T04:17:24.035Z,65.22
2023-01-03T04:19:52.283Z,64.20
2023-01-03T04:22:20.747Z,63.90
2023-01-03T04:24:50.715Z,63.81
2023-01-03T04:27:19.276Z,63.67
2023-01-03T04:29:47.456Z,64.29
2023-01-03T04:32:16.073Z,64.36
2023-01-03T04:34:44.696Z,65.23
2023-01-03T04:37:14.020Z,65.07
2023-01-03T04:39:42.573Z,64.13
2023-01-03T04:42:26.197Z,63.75
2023-01-03T04:44:54.808Z,64.58
2023-01-03T04:47:23.072Z,64.49
2023-01-03T04:49:52.095Z,64.32
2023-01-03T04:52:20.261Z,64.32
2023-01-03T04:54:48.706Z,65.19
2023-01-03T04:57:18.543Z,64.26
2023-01-03T04:59:46.763Z,64.89
2023-01-03T05:02:15.076Z,64.60
2023-01-03T05:04:43.575Z,64.62
2023-01-03T05:07:12.225Z,63.96
2023-01-03T05:09:40.483Z,63.63
2023-01-03T05:12:12.296Z,63.87
2023-01-03T05:14:42.813Z,63.67
2023-01-03T05:17:11.338Z,64.03
2023-01-03T05:20:00.572Z,64.19
2023-01-03T05:22:46.764Z,63.12
2023-01-03T05:25:28.854Z,63.01
2023-01-03T05:27:58.353Z,63.53
2023-01-03T05:30:28.079Z,63.79
2023-01-03T05:32:56.728Z,63.85
2023-01-03T05:35:25.129Z,63.90
2023-01-03T05:37:54.517Z,63.57
2023-01-03T05:40:22.931Z,63.28
2023-01-03T05:42:51.188Z,64.38
2023-01-03T05:45:19.715Z,64.81
2023-01-03T05:47:49.720Z,64.04
2023-01-03T05:50:18.857Z,65.43
2023-01-03T05:52:49.040Z,64.19
2023-01-03T05:55:17.312Z,64.13
2023-01-03T05:57:47.379Z,65.88
2023-01-03T06:00:17.025Z,65.33
2023-01-03T06:02:45.578Z,63.88
2023-01-03T06:05:15.803Z,64.86
2023-01-03T06:07:44.122Z,64.99
2023-01-03T06:10:12.847Z,65.11
2023-01-03T06:12:41.034Z,64.44
2023-01-03T06:15:10.137Z,64.74
2023-01-03T06:17:57.960Z,65.39
2023-01-03T06:20:30.562Z,64.18
2023-01-03T06:22:59.093Z,64.58
2023-01-03T06:25:27.626Z,66.13
2023-01-03T06:27:56.610Z,65.77
2023-01-03T06:30:24.989Z,65.78
2023-01-03T06:32:53.367Z,65.85
2023-01-03T06:35:21.558Z,64.79
2023-01-03T06:37:51.449Z,65.35
2023-01-03T06:40:20.437Z,65.99
2023-01-03T06:42:48.847Z,66.26
2023-01-03T06:45:34.518Z,66.03
2023-01-03T06:48:23.542Z,64.89
2023-01-03T06:51:10.218Z,65.43
2023-01-03T06:53:42.413Z,65.81
2023-01-03T06:56:11.819Z,65.09
2023-01-03T06:58:40.528Z,64.41
2023-01-03T07:01:09.034Z,63.20
2023-01-03T07:03:37.460Z,64.32
2023-01-03T07:06:07.520Z,63.61
2023-01-03T07:08:36.305Z,63.38
2023-01-03T07:11:06.714Z,63.19
2023-01-03T07:13:52.730Z,62.57
2023-01-03T07:16:21.958Z,62.72
2023-01-03T07:18:55.361Z,62.62
2023-01-03T07:21:25.491Z,61.85
2023-01-03T07:23:55.050Z,61.89
2023-01-03T07:26:26.864Z,61.66
2023-01-03T07:28:55.358Z,61.91
2023-01-03T07:31:24.244Z,61.57
2023-01-03T07:33:53.244Z,61.43
2023-01-03T07:36:22.850Z,60.74
2023-01-03T07:38:51.350Z,60.75
2023-01-03T07:41:20.029Z,60.21
2023-01-03T07:43:49.873Z,60.77
2023-01-03T07:46:21.069Z,60.92
2023-01-03T07:48:51.623Z,60.36
2023-01-03T07:51:21.618Z,59.06
2023-01-03T07:53:51.657Z,57.69
2023-01-03T07:56:22.218Z,56.29
2023-01-03T07:58:52.443Z,56.61
2023-01-03T08:01:22.742Z,56.64
2023-01-03T08:03:52.193Z,56.37
2023-01-03T08:06:22.962Z,56.29
2023-01-03T08:09:12.247Z,55.76
2023-01-03T08:12:07.223Z,56.37
2023-01-03T08:14:37.115Z,55.75
2023-01-03T08:17:05.419Z,56.90
2023-01-03T08:19:34.084Z,57.73
2023-01-03T08:22:02.646Z,57.76
2023-01-03T08:24:30.866Z,57.94
2023-01-03T08:26:59.457Z,57.68
2023-01-03T08:29:27.809Z,58.11
2023-01-03T08:32:00.134Z,59.01
2023-01-03T08:34:34.571Z,59.26
2023-01-03T08:37:07.751Z,59.31
2023-01-03T08:39:40.089Z,59.10
2023-01-03T08:42:11.843Z,58.51
2023-01-03T08:44:40.953Z,58.21
2023-01-03T08:47:11.080Z,57.65
2023-01-03T08:49:40.416Z,57.86
2023-01-03T08:52:09.313Z,57.84
2023-01-03T08:54:39.286Z,58.21
2023-01-03T08:57:08.092Z,58.30
2023-01-03T08:59:36.478Z,58.08
2023-01-03T09:02:04.819Z,57.80
2023-01-03T09:04:34.796Z,57.73
2023-01-03T09:07:03.372Z,57.93
2023-01-03T09:09:32.545Z,57.70
2023-01-03T09:12:01.157Z,57.91
2023-01-03T09:14:31.143Z,57.54
2023-01-03T09:16:59.666Z,57.91
2023-01-03T09:19:28.005Z,57.05
2023-01-03T09:21:57.785Z,57.07
2023-01-03T09:24:26.213Z,57.27
2023-01-03T09:26:55.245Z,57.92
2023-01-03T09:29:23.794Z,57.16
2023-01-03T09:31:52.197Z,56.38
2023-01-03T09:34:21.336Z,55.00
2023-01-03T09:36:49.841Z,56.62
2023-01-03T09:39:20.349Z,58.93
2023-01-03T09:42:10.759Z,61.12
2023-01-03T09:44:51.274Z,60.92
2023-01-03T09:47:24.396Z,60.49
2023-01-03T09:50:27.356Z,60.14
2023-01-03T09:53:02.496Z,60.08
2023-01-03T09:55:56.616Z,59.31
2023-01-03T09:58:42.329Z,59.87
2023-01-03T10:01:56.828Z,59.32
2023-01-03T10:04:50.464Z,58.19
2023-01-03T10:07:35.010Z,57.29
2023-01-03T10:10:14.872Z,57.92
2023-01-03T10:12:56.739Z,57.50
2023-01-03T10:15:37.759Z,57.54
2023-01-03T10:18:17.835Z,56.33
2023-01-03T10:20:50.142Z,57.72
2023-01-03T10:23:20.124Z,57.91
2023-01-03T10:25:49.054Z,57.18
2023-01-03T10:28:21.730Z,58.89
2023-01-03T10:31:14.072Z,57.50
2023-01-03T10:33:45.584Z,56.68
2023-01-03T10:36:14.785Z,56.50
2023-01-03T10:38:51.580Z,55.19
2023-01-03T10:41:31.529Z,56.80
2023-01-03T10:44:02.676Z,56.62
2023-01-03T10:46:31.550Z,57.17
2023-01-03T10:49:31.336Z,57.70
2023-01-03T10:52:04.642Z,56.19
2023-01-03T10:54:47.820Z,55.59
2023-01-03T10:57:39.260Z,55.34
2023-01-03T11:00:31.873Z,55.14
2023-01-03T11:03:13.589Z,53.22
2023-01-03T11:05:43.878Z,55.87
2023-01-03T11:08:18.180Z,55.09
2023-01-03T11:10:58.439Z,54.04
2023-01-03T11:13:32.669Z,54.74
2023-01-03T11:16:05.159Z,52.68
2023-01-03T11:18:33.813Z,53.21
2023-01-03T11:21:14.463Z,53.41
2023-01-03T11:24:03.128Z,53.00
2023-01-03T11:26:43.002Z,53.61
2023-01-03T11:29:36.777Z,53.33
2023-01-03T11:32:20.075Z,54.83
2023-01-03T11:35:24.294Z,54.70
2023-01-03T11:38:03.096Z,54.37
2023-01-03T11:40:38.903Z,54.85
2023-01-03T11:43:21.605Z,54.63
2023-01-03T11:46:09.595Z,53.43
2023-01-03T11:49:02.664Z,53.60
2023-01-03T11:51:37.521Z,53.19
2023-01-03T11:54:20.212Z,51.59
2023-01-03T11:56:50.734Z,51.46
2023-01-03T11:59:43.232Z,50.64
2023-01-03T12:02:50.994Z,49.97
2023-01-03T12:05:44.334Z,50.48
2023-01-03T12:08:45.579Z,49.88
2023-01-03T12:11:27.082Z,49.76
2023-01-03T12:14:01.678Z,48.73
2023-01-03T12:16:34.779Z,50.04
2023-01-03T12:19:12.567Z,51.14
2023-01-03T12:21:49.513Z,51.02
2023-01-03T12:24:27.689Z,50.78
2023-01-03T12:27:01.986Z,50.64
2023-01-03T12:29:36.014Z,49.62
2023-01-03T12:32:11.406Z,47.95
2023-01-03T12:34:48.928Z,48.19
2023-01-03T12:37:23.556Z,48.16
2023-01-03T12:39:56.724Z,48.36
2023-01-03T12:42:37.417Z,48.68
2023-01-03T12:45:26.312Z,47.09
2023-01-03T12:48:05.874Z,46.65
2023-01-03T12:50:42.403Z,46.33
2023-01-03T12:53:20.493Z,46.15
2023-01-03T12:56:05.369Z,46.19
2023-01-03T12:58:47.692Z,46.37
2023-01-03T13:01:20.840Z,46.78
2023-01-03T13:03:54.661Z,46.18
2023-01-03T13:06:27.889Z,46.61
2023-01-03T13:09:01.765Z,47.56
2023-01-03T13:11:36.352Z,47.69
2023-01-03T13:14:07.039Z,47.73
2023-01-03T13:16:48.923Z,48.00
2023-01-03T13:19:51.584Z,47.31
2023-01-03T13:22:34.222Z,46.82
2023-01-03T13:25:40.646Z,47.97
2023-01-03T13:28:30.974Z,47.93
2023-01-03T13:31:48.320Z,48.64
2023-01-03T13:34:31.575Z,48.70
2023-01-03T13:37:24.500Z,48.56
2023-01-03T13:40:04.329Z,49.94
2023-01-03T13:42:37.668Z,49.96
2023-01-03T13:46:03.127Z,49.35
2023-01-03T13:48:53.503Z,49.17
2023-01-03T13:51:51.849Z,49.83
2023-01-03T13:54:56.205Z,49.91
2023-01-03T13:57:53.888Z,48.75
2023-01-03T14:00:24.564Z,49.36
2023-01-03T14:03:14.715Z,48.85
2023-01-03T14:06:29.204Z,49.93
2023-01-03T14:09:31.832Z,50.21
2023-01-03T14:12:18.947Z,50.37
2023-01-03T14:14:54.305Z,50.85
2023-01-03T14:17:28.489Z,50.47
2023-01-03T14:20:02.424Z,51.02
2023-01-03T14:22:38.230Z,50.79
2023-01-03T14:25:08.014Z,51.47
2023-01-03T14:27:40.703Z,52.26
2023-01-03T14:30:22.516Z,53.49
2023-01-03T14:32:51.300Z,52.92
2023-01-03T14:35:34.444Z,52.58
2023-01-03T14:38:07.081Z,52.03
2023-01-03T14:40:36.479Z,52.34
2023-01-03T14:43:07.140Z,53.02
2023-01-03T14:45:35.789Z,53.69
2023-01-03T14:48:07.016Z,53.81
2023-01-03T14:50:35.389Z,54.01
2023-01-03T14:53:04.667Z,53.35
2023-01-03T14:55:34.705Z,53.39
2023-01-03T14:58:22.611Z,53.86
2023-01-03T15:00:53.940Z,53.64
2023-01-03T15:03:22.850Z,54.21
2023-01-03T15:05:55.166Z,54.75
2023-01-03T15:08:27.621Z,55.49
2023-01-03T15:11:00.827Z,55.63
2023-01-03T15:13:34.806Z,55.91
2023-01-03T15:16:07.286Z,55.76
2023-01-03T15:18:38.949Z,54.94
2023-01-03T15:21:07.817Z,55.22
2023-01-03T15:23:42.250Z,55.76
2023-01-03T15:26:22.695Z,56.19
2023-01-03T15:28:53.280Z,57.35
2023-01-03T15:31:37.757Z,56.98
2023-01-03T15:34:15.838Z,58.67
2023-01-03T15:36:48.637Z,58.35
2023-01-03T15:39:20.121Z,58.24
2023-01-03T15:45:12.832Z,56.48
2023-01-03T15:47:45.017Z,56.62
2023-01-03T15:50:18.952Z,57.38
2023-01-03T15:52:48.633Z,57.42
2023-01-03T15:55:18.434Z,57.92
2023-01-03T15:57:53.999Z,57.68
2023-01-03T16:00:24.441Z,57.79
2023-01-03T16:02:54.575Z,57.80
2023-01-03T16:05:23.588Z,58.10
2023-01-03T16:07:51.968Z,58.61
2023-01-03T16:10:23.010Z,59.01
2023-01-03T16:12:51.520Z,57.91
2023-01-03T16:15:22.401Z,59.20
2023-01-03T16:17:52.736Z,58.56
2023-01-03T16:20:22.443Z,58.84
2023-01-03T16:23:00.808Z,59.40
2023-01-03T16:25:30.557Z,58.61
2023-01-03T16:27:58.902Z,58.71
2023-01-03T16:30:27.434Z,58.34
2023-01-03T16:32:55.645Z,58.64
2023-01-03T16:35:25.820Z,58.70
2023-01-03T16:37:53.871Z,58.09
2023-01-03T16:40:22.600Z,58.97
2023-01-03T16:42:50.959Z,58.57
2023-01-03T16:45:19.806Z,57.92
2023-01-03T16:47:49.658Z,58.29
2023-01-03T16:50:20.697Z,58.61
2023-01-03T16:52:57.195Z,58.17
2023-01-03T16:55:28.153Z,58.41
2023-01-03T16:57:57.193Z,59.47
2023-01-03T17:00:27.832Z,58.72
2023-01-03T17:03:00.181Z,58.60
2023-01-03T17:05:30.289Z,58.72
2023-01-03T17:08:04.115Z,58.38
2023-01-03T17:10:36.523Z,59.03
2023-01-03T17:13:12.596Z,59.03
2023-01-03T17:15:41.719Z,59.82
2023-01-03T17:18:18.637Z,59.23
2023-01-03T17:20:49.341Z,59.81
2023-01-03T17:23:19.794Z,59.01
2023-01-03T17:25:47.851Z,59.51
2023-01-03T17:28:16.490Z,59.02
2023-01-03T17:30:45.349Z,58.30
2023-01-03T17:33:16.046Z,59.34
2023-01-03T17:35:46.392Z,59.92
2023-01-03T17:38:31.113Z,60.38
2023-01-03T17:41:00.929Z,60.26
2023-01-03T17:43:29.372Z,59.94
2023-01-03T17:46:23.079Z,59.88
2023-01-03T17:49:09.995Z,60.12
2023-01-03T17:51:38.348Z,60.47
2023-01-03T17:54:06.787Z,61.14
2023-01-03T17:56:37.409Z,61.07
2023-01-03T17:59:06.012Z,61.50
2023-01-03T18:01:34.807Z,61.13
2023-01-03T18:04:03.196Z,60.56
2023-01-03T18:06:31.573Z,60.15
2023-01-03T18:09:03.601Z,60.57
2023-01-03T18:11:32.051Z,60.52
2023-01-03T18:14:01.697Z,61.27
2023-01-03T18:16:30.656Z,61.05
2023-01-03T18:18:59.238Z,61.14
2023-01-03T18:21:28.868Z,61.55
2023-01-03T18:24:00.009Z,61.46
2023-01-03T18:26:34.617Z,60.73
2023-01-03T18:29:05.125Z,60.58
2023-01-03T18:31:33.908Z,60.34
2023-01-03T18:34:04.801Z,60.40
2023-01-03T18:36:38.658Z,60.27
2023-01-03T18:39:12.169Z,60.68
2023-01-03T18:41:42.008Z,61.04
2023-01-03T18:44:20.588Z,60.81
2023-01-03T18:46:49.008Z,60.70
2023-01-03T18:49:18.169Z,60.67
2023-01-03T18:51:49.539Z,60.31
2023-01-03T18:54:20.148Z,60.20
2023-01-03T18:56:48.554Z,60.54
2023-01-03T18:59:22.072Z,60.45
2023-01-03T19:01:51.641Z,60.46
2023-01-03T19:04:20.010Z,60.54
2023-01-03T19:06:51.476Z,61.11
2023-01-03T19:09:22.908Z,61.61
2023-01-03T19:11:52.601Z,61.45
2023-01-03T19:14:22.479Z,63.06
2023-01-03T19:16:51.304Z,62.65
2023-01-03T19:19:19.619Z,61.82
2023-01-03T19:21:49.088Z,61.15
2023-01-03T19:24:34.628Z,60.89
2023-01-03T19:27:13.621Z,60.58
2023-01-03T19:29:44.094Z,61.00
2023-01-03T19:32:17.973Z,60.97
2023-01-03T19:34:46.690Z,60.88
2023-01-03T19:37:14.897Z,60.83
2023-01-03T19:39:44.128Z,61.68
2023-01-03T19:42:48.077Z,61.28
2023-01-03T19:45:25.403Z,61.27
2023-01-03T19:47:53.669Z,60.71
2023-01-03T19:50:23.646Z,61.10
2023-01-03T19:52:53.359Z,61.47
2023-01-03T19:55:25.086Z,60.71
2023-01-03T19:57:53.980Z,61.73
2023-01-03T20:00:26.886Z,61.86
2023-01-03T20:02:58.692Z,62.83
2023-01-03T20:05:30.464Z,62.68
2023-01-03T20:07:58.953Z,62.33
2023-01-03T20:10:27.642Z,64.36
2023-01-03T20:12:58.472Z,64.30
2023-01-03T20:15:31.050Z,63.64
2023-01-03T20:18:00.400Z,64.16
2023-01-03T20:20:32.392Z,65.00
2023-01-03T20:23:05.820Z,64.34
2023-01-03T20:25:37.138Z,63.89
2023-01-03T20:28:06.568Z,63.24
2023-01-03T20:30:36.575Z,63.11
2023-01-03T20:33:05.137Z,63.09
2023-01-03T20:36:09.643Z,63.13
2023-01-03T20:38:27.023Z,63.02
2023-01-03T20:40:57.563Z,62.76
2023-01-03T20:43:25.811Z,63.21
2023-01-03T20:45:58.456Z,63.87
2023-01-03T20:48:27.607Z,63.95
2023-01-03T20:50:56.553Z,62.26
2023-01-03T20:53:26.514Z,61.53
2023-01-03T20:55:55.160Z,61.74
2023-01-03T20:58:26.463Z,61.53
2023-01-03T21:01:04.271Z,61.76
2023-01-03T21:03:34.584Z,62.00
2023-01-03T21:06:03.639Z,63.10
2023-01-03T21:08:49.502Z,63.77
2023-01-03T21:11:18.170Z,63.74
2023-01-03T21:13:46.575Z,63.85
2023-01-03T21:16:26.832Z,62.42
2023-01-03T21:18:55.224Z,62.02
2023-01-03T21:21:24.754Z,62.95
2023-01-03T21:23:54.398Z,62.92
2023-01-03T21:26:22.810Z,62.93
2023-01-03T21:28:51.195Z,63.56
2023-01-03T21:31:22.911Z,63.62
2023-01-03T21:33:51.604Z,64.20
2023-01-03T21:36:24.987Z,63.98
2023-01-03T21:38:53.600Z,64.74
2023-01-03T21:41:24.102Z,65.10
2023-01-03T21:43:55.669Z,63.50
2023-01-03T21:46:27.217Z,63.55
2023-01-03T21:48:56.331Z,64.26
2023-01-03T21:51:37.272Z,64.65
2023-01-03T21:54:09.213Z,64.73
2023-01-03T21:56:46.116Z,64.53
2023-01-03T21:59:15.230Z,63.72
2023-01-03T22:02:03.640Z,63.15
2023-01-03T22:04:32.421Z,63.24
2023-01-03T22:07:01.893Z,62.28
2023-01-03T22:09:49.397Z,63.07
2023-01-03T22:12:18.616Z,63.11
2023-01-03T22:14:47.173Z,63.07
2023-01-03T22:17:17.720Z,63.66
2023-01-03T22:19:46.141Z,63.64
2023-01-03T22:22:14.296Z,63.19
2023-01-03T22:24:42.607Z,63.16
2023-01-03T22:27:10.999Z,63.55
2023-01-03T22:29:39.706Z,63.16
2023-01-03T22:32:10.313Z,63.77
2023-01-03T22:34:40.551Z,63.96
2023-01-03T22:37:08.941Z,63.68
2023-01-03T22:39:37.407Z,63.64
2023-01-03T22:42:06.078Z,62.52
2023-01-03T22:44:34.368Z,62.04
2023-01-03T22:47:02.952Z,62.93
2023-01-03T22:49:31.438Z,62.95
2023-01-03T22:52:01.253Z,63.64
2023-01-03T22:54:30.361Z,64.63
2023-01-03T22:56:58.718Z,64.88
2023-01-03T22:59:27.606Z,63.19
2023-01-03T23:01:56.213Z,62.76
2023-01-03T23:04:26.481Z,62.87
2023-01-03T23:06:55.314Z,63.19
2023-01-03T23:09:25.347Z,62.65
2023-01-03T23:12:11.090Z,62.57
2023-01-03T23:14:39.502Z,63.22
2023-01-03T23:17:25.711Z,63.98
2023-01-03T23:19:53.993Z,64.41
2023-01-03T23:22:22.173Z,64.20
2023-01-03T23:24:52.155Z,64.80
2023-01-03T23:27:20.311Z,64.21
2023-01-03T23:29:49.080Z,63.40
2023-01-03T23:32:17.461Z,63.11
2023-01-03T23:34:45.565Z,62.93
2023-01-03T23:37:14.019Z,63.62
2023-01-03T23:39:43.096Z,63.74
2023-01-03T23:42:13.085Z,64.04
2023-01-03T23:44:41.361Z,63.77
2023-01-03T23:47:12.321Z,62.50
2023-01-03T23:49:41.430Z,62.38
2023-01-03T23:52:09.806Z,62.82
2023-01-03T23:54:38.417Z,62.27
2023-01-03T23:57:06.881Z,62.68
2023-01-03T23:59:37.111Z,62.91
